sensor_id;sensor_type;location;lat;lon;timestamp;pressure;altitude;pressure_sealevel;temperature;humidity
21664;BME280;10993;52.510;13.456;2023-12-20T00:04:32;98448.00;;;-146.93;100.00
21664;BME280;10993;52.510;13.456;2023-12-20T00:09:32;97923.38;;;-146.93;100.00
21664;BME280;10993;52.510;13.456;2023-12-20T00:14:32;97661.06;;;-146.93;100.00
21664;BME280;10993;52.510;13.456;2023-12-20T00:19:34;98448.00;;;-146.93;100.00
21664;BME280;10993;52.510;13.456;2023-12-20T00:24:34;97923.38;;;-146.93;100.00
21664;BME280;10993;52.510;13.456;2023-12-20T00:29:35;97661.06;;;-146.93;100.00
21664;BME280;10993;52.510;13.456;2023-12-20T00:34:37;97661.06;;;-146.93;100.00
21664;BME280;10993;52.510;13.456;2023-12-20T00:39:37;97398.81;;;-146.93;100.00
21664;BME280;10993;52.510;13.456;2023-12-20T00:44:37;97398.81;;;-146.93;100.00
21664;BME280;10993;52.510;13.456;2023-12-20T00:49:39;97923.38;;;-146.93;100.00
21664;BME280;10993;52.510;13.456;2023-12-20T00:54:39;97923.38;;;-146.93;100.00
21664;BME280;10993;52.510;13.456;2023-12-20T00:59:40;97923.38;;;-146.93;100.00
21664;BME280;10993;52.510;13.456;2023-12-20T01:04:42;98448.00;;;-146.93;100.00
21664;BME280;10993;52.510;13.456;2023-12-20T01:09:42;99497.53;;;-146.93;100.00
21664;BME280;10993;52.510;13.456;2023-12-20T01:14:42;99235.13;;;-146.93;100.00
21664;BME280;10993;52.510;13.456;2023-12-20T01:19:44;98972.72;;;-146.93;100.00
21664;BME280;10993;52.510;13.456;2023-12-20T01:24:44;98710.38;;;-146.93;100.00
21664;BME280;10993;52.510;13.456;2023-12-20T01:29:45;99235.13;;;-146.93;100.00
21664;BME280;10993;52.510;13.456;2023-12-20T01:34:46;99497.53;;;-146.93;100.00
21664;BME280;10993;52.510;13.456;2023-12-20T01:39:48;99497.53;;;-146.93;100.00
21664;BME280;10993;52.510;13.456;2023-12-20T01:44:49;99759.97;;;-146.93;100.00
21664;BME280;10993;52.510;13.456;2023-12-20T01:49:50;99759.97;;;-146.93;100.00
21664;BME280;10993;52.510;13.456;2023-12-20T01:54:51;100547.38;;;-146.93;100.00
21664;BME280;10993;52.510;13.456;2023-12-20T01:59:51;100284.88;;;-146.93;100.00
21664;BME280;10993;52.510;13.456;2023-12-20T02:04:53;100547.38;;;-146.93;100.00
21664;BME280;10993;52.510;13.456;2023-12-20T02:09:53;100809.88;;;-146.93;100.00
21664;BME280;10993;52.510;13.456;2023-12-20T02:14:53;100547.38;;;-146.93;100.00
21664;BME280;10993;52.510;13.456;2023-12-20T02:19:55;99759.97;;;-146.93;100.00
21664;BME280;10993;52.510;13.456;2023-12-20T02:24:57;97923.38;;;-146.93;100.00
21664;BME280;10993;52.510;13.456;2023-12-20T02:29:57;98448.00;;;-146.93;100.00
21664;BME280;10993;52.510;13.456;2023-12-20T02:34:58;98710.38;;;-146.93;100.00
21664;BME280;10993;52.510;13.456;2023-12-20T02:39:59;98710.38;;;-146.93;100.00
21664;BME280;10993;52.510;13.456;2023-12-20T02:45:00;98710.38;;;-146.93;100.00
21664;BME280;10993;52.510;13.456;2023-12-20T02:50:00;99235.13;;;-146.93;100.00
21664;BME280;10993;52.510;13.456;2023-12-20T02:55:02;99759.97;;;-146.93;100.00
21664;BME280;10993;52.510;13.456;2023-12-20T03:00:03;100284.88;;;-146.93;100.00
21664;BME280;10993;52.510;13.456;2023-12-20T03:05:04;99235.13;;;-146.93;100.00
21664;BME280;10993;52.510;13.456;2023-12-20T03:10:06;98185.69;;;-146.93;100.00
21664;BME280;10993;52.510;13.456;2023-12-20T03:15:09;97661.06;;;-146.93;100.00
21664;BME280;10993;52.510;13.456;2023-12-20T03:20:09;96612.09;;;-146.93;100.00
21664;BME280;10993;52.510;13.456;2023-12-20T03:25:11;96612.09;;;-146.93;100.00
21664;BME280;10993;52.510;13.456;2023-12-20T03:30:12;96612.09;;;-146.93;100.00
21664;BME280;10993;52.510;13.456;2023-12-20T03:35:12;95825.59;;;-146.93;100.00
21664;BME280;10993;52.510;13.456;2023-12-20T03:40:14;95825.59;;;-146.93;100.00
21664;BME280;10993;52.510;13.456;2023-12-20T03:45:15;95563.44;;;-146.93;100.00
21664;BME280;10993;52.510;13.456;2023-12-20T03:50:15;95563.44;;;-146.93;100.00
21664;BME280;10993;52.510;13.456;2023-12-20T03:55:17;95825.59;;;-146.93;100.00
21664;BME280;10993;52.510;13.456;2023-12-20T04:00:18;95563.44;;;-146.93;100.00
21664;BME280;10993;52.510;13.456;2023-12-20T04:05:18;95301.34;;;-146.93;100.00
21664;BME280;10993;52.510;13.456;2023-12-20T04:10:20;95563.44;;;-146.93;100.00
21664;BME280;10993;52.510;13.456;2023-12-20T04:15:20;94777.16;;;-146.93;100.00
21664;BME280;10993;52.510;13.456;2023-12-20T04:20:20;94253.09;;;-146.93;100.00
21664;BME280;10993;52.510;13.456;2023-12-20T04:25:22;94253.09;;;-146.93;100.00
21664;BME280;10993;52.510;13.456;2023-12-20T04:30:22;92943.22;;;-146.93;100.00
21664;BME280;10993;52.510;13.456;2023-12-20T04:35:23;92681.28;;;-146.93;100.00
21664;BME280;10993;52.510;13.456;2023-12-20T04:40:25;92681.28;;;-146.93;100.00
21664;BME280;10993;52.510;13.456;2023-12-20T04:45:25;92943.22;;;-146.93;100.00
21664;BME280;10993;52.510;13.456;2023-12-20T04:50:25;92419.41;;;-146.93;100.00
21664;BME280;10993;52.510;13.456;2023-12-20T04:55:27;92419.41;;;-146.93;100.00
21664;BME280;10993;52.510;13.456;2023-12-20T05:00:28;93729.06;;;-146.93;100.00
21664;BME280;10993;52.510;13.456;2023-12-20T05:05:28;92681.28;;;-146.93;100.00
21664;BME280;10993;52.510;13.456;2023-12-20T05:10:30;92419.41;;;-146.93;100.00
21664;BME280;10993;52.510;13.456;2023-12-20T05:15:30;91372.00;;;-146.93;100.00
21664;BME280;10993;52.510;13.456;2023-12-20T05:20:31;90324.94;;;-146.93;100.00
21664;BME280;10993;52.510;13.456;2023-12-20T05:25:32;89539.84;;;-146.93;100.00
21664;BME280;10993;52.510;13.456;2023-12-20T05:30:33;88493.34;;;-146.93;100.00
21664;BME280;10993;52.510;13.456;2023-12-20T05:35:33;87970.19;;;-146.93;100.00
21664;BME280;10993;52.510;13.456;2023-12-20T05:40:35;87708.66;;;-146.93;100.00
21664;BME280;10993;52.510;13.456;2023-12-20T05:45:35;87970.19;;;-146.93;100.00
21664;BME280;10993;52.510;13.456;2023-12-20T05:50:36;88493.34;;;-146.93;100.00
21664;BME280;10993;52.510;13.456;2023-12-20T05:55:38;89016.56;;;-146.93;100.00
21664;BME280;10993;52.510;13.456;2023-12-20T06:00:38;88231.75;;;-146.93;100.00
21664;BME280;10993;52.510;13.456;2023-12-20T06:05:39;88493.34;;;-146.93;100.00
21664;BME280;10993;52.510;13.456;2023-12-20T06:10:41;90063.22;;;-146.93;100.00
21664;BME280;10993;52.510;13.456;2023-12-20T06:15:41;89801.53;;;-146.93;100.00
21664;BME280;10993;52.510;13.456;2023-12-20T06:20:41;89016.56;;;-146.93;100.00
21664;BME280;10993;52.510;13.456;2023-12-20T06:25:43;89278.19;;;-146.93;100.00
21664;BME280;10993;52.510;13.456;2023-12-20T06:30:43;88231.75;;;-146.93;100.00
21664;BME280;10993;52.510;13.456;2023-12-20T06:35:44;88493.34;;;-146.93;100.00
21664;BME280;10993;52.510;13.456;2023-12-20T06:40:46;87708.66;;;-146.93;100.00
21664;BME280;10993;52.510;13.456;2023-12-20T06:45:46;87447.13;;;-146.93;100.00
21664;BME280;10993;52.510;13.456;2023-12-20T06:50:46;86662.69;;;-146.93;100.00
21664;BME280;10993;52.510;13.456;2023-12-20T06:55:48;87185.63;;;-146.93;100.00
21664;BME280;10993;52.510;13.456;2023-12-20T07:00:48;87185.63;;;-146.93;100.00
21664;BME280;10993;52.510;13.456;2023-12-20T07:05:49;87447.13;;;-146.93;100.00
21664;BME280;10993;52.510;13.456;2023-12-20T07:10:51;85617.03;;;-146.93;100.00
21664;BME280;10993;52.510;13.456;2023-12-20T07:15:51;85617.03;;;-146.93;100.00
21664;BME280;10993;52.510;13.456;2023-12-20T07:20:51;84049.19;;;-146.93;100.00
21664;BME280;10993;52.510;13.456;2023-12-20T07:25:53;83004.31;;;-146.93;100.00
21664;BME280;10993;52.510;13.456;2023-12-20T07:30:53;81959.78;;;-146.93;100.00
21664;BME280;10993;52.510;13.456;2023-12-20T07:35:54;79349.84;;;-146.93;100.00
21664;BME280;10993;52.510;13.456;2023-12-20T07:40:55;78567.25;;;-146.93;100.00
21664;BME280;10993;52.510;13.456;2023-12-20T07:45:56;75699.25;;;-146.93;99.24
21664;BME280;10993;52.510;13.456;2023-12-20T07:50:56;76481.19;;;-146.93;99.08
21664;BME280;10993;52.510;13.456;2023-12-20T07:55:58;74396.38;;;-146.93;99.03
21664;BME280;10993;52.510;13.456;2023-12-20T08:00:58;70836.44;;;-146.93;97.99
21664;BME280;10993;52.510;13.456;2023-12-20T08:05:58;69383.03;;;-146.93;97.59
21664;BME280;10993;52.510;13.456;2023-12-20T08:11:01;67351.28;;;-146.93;96.83
21664;BME280;10993;52.510;13.456;2023-12-20T08:16:02;66039.44;;;-146.93;96.40
21664;BME280;10993;52.510;13.456;2023-12-20T08:21:03;65550.16;;;-146.93;95.97
21664;BME280;10993;52.510;13.456;2023-12-20T08:26:06;65132.00;;;-146.93;95.80
21664;BME280;10993;52.510;13.456;2023-12-20T08:31:13;66236.38;;;-146.93;96.51
21664;BME280;10993;52.510;13.456;2023-12-20T08:36:14;65345.13;;;-146.93;95.91
21664;BME280;10993;52.510;13.456;2023-12-20T08:41:16;65316.72;;;-146.93;96.06
21664;BME280;10993;52.510;13.456;2023-12-20T08:46:17;65002.09;;;-146.93;95.62
21664;BME280;10993;52.510;13.456;2023-12-20T08:51:17;64521.06;;;-146.93;95.30
21664;BME280;10993;52.510;13.456;2023-12-20T08:56:20;61918.31;;;-146.93;93.16
21664;BME280;10993;52.510;13.456;2023-12-20T09:01:20;60790.97;;;-146.93;91.75
21664;BME280;10993;52.510;13.456;2023-12-20T09:06:21;60484.88;;;-146.93;91.60
21664;BME280;10993;52.510;13.456;2023-12-20T09:11:22;60464.63;;;-146.93;91.29
21664;BME280;10993;52.510;13.456;2023-12-20T09:16:23;59980.19;;;-146.93;89.91
21664;BME280;10993;52.510;13.456;2023-12-20T09:21:23;59084.50;;;-146.93;87.88
21664;BME280;10993;52.510;13.456;2023-12-20T09:26:25;58928.47;;;-146.93;87.55
21664;BME280;10993;52.510;13.456;2023-12-20T09:31:25;58906.19;;;-146.93;87.15
21664;BME280;10993;52.510;13.456;2023-12-20T09:36:25;58950.78;;;-146.93;87.71
21664;BME280;10993;52.510;13.456;2023-12-20T09:41:31;59493.81;;;-146.93;89.40
21664;BME280;10993;52.510;13.456;2023-12-20T09:46:39;59868.72;;;-146.93;90.22
21664;BME280;10993;52.510;13.456;2023-12-20T09:51:42;60255.84;;;-146.93;90.78
21664;BME280;10993;52.510;13.456;2023-12-20T09:56:44;60132.19;;;-146.93;90.63
21664;BME280;10993;52.510;13.456;2023-12-20T10:01:44;59759.28;;;-146.93;89.77
21664;BME280;10993;52.510;13.456;2023-12-20T10:06:45;59362.09;;;-146.93;89.12
21664;BME280;10993;52.510;13.456;2023-12-20T10:11:47;59315.50;;;-146.93;88.81
21664;BME280;10993;52.510;13.456;2023-12-20T10:16:47;59266.84;;;-146.93;88.44
21664;BME280;10993;52.510;13.456;2023-12-20T10:21:47;59035.88;;;-146.93;87.96
21664;BME280;10993;52.510;13.456;2023-12-20T10:27:01;58843.38;;;-146.93;87.65
21664;BME280;10993;52.510;13.456;2023-12-20T10:32:21;58687.38;;;-146.93;86.74
21664;BME280;10993;52.510;13.456;2023-12-20T10:37:22;58539.50;;;-146.93;86.07
21664;BME280;10993;52.510;13.456;2023-12-20T10:42:24;58606.34;;;-146.93;86.52
21664;BME280;10993;52.510;13.456;2023-12-20T10:47:26;58806.91;;;-146.93;87.22
21664;BME280;10993;52.510;13.456;2023-12-20T10:52:29;58798.81;;;-146.93;87.00
21664;BME280;10993;52.510;13.456;2023-12-20T10:57:30;58567.84;;;-146.93;86.29
21664;BME280;10993;52.510;13.456;2023-12-20T11:02:32;58363.25;;;-146.93;85.37
21664;BME280;10993;52.510;13.456;2023-12-20T11:07:36;58318.69;;;-146.93;85.27
21664;BME280;10993;52.510;13.456;2023-12-20T11:12:46;58205.25;;;-146.93;85.29
21664;BME280;10993;52.510;13.456;2023-12-20T11:17:54;58521.25;;;-146.93;86.32
21664;BME280;10993;52.510;13.456;2023-12-20T11:22:55;59372.22;;;-146.93;89.18
21664;BME280;10993;52.510;13.456;2023-12-20T11:28:10;59844.41;;;-146.93;90.12
21664;BME280;10993;52.510;13.456;2023-12-20T11:33:11;60422.06;;;-146.93;91.17
21664;BME280;10993;52.510;13.456;2023-12-20T11:38:13;61042.38;;;-146.93;91.97
21664;BME280;10993;52.510;13.456;2023-12-20T11:43:29;62023.75;;;-146.93;93.17
21664;BME280;10993;52.510;13.456;2023-12-20T11:48:30;61987.25;;;-146.93;93.18
21664;BME280;10993;52.510;13.456;2023-12-20T11:53:31;61003.84;;;-146.93;91.94
21664;BME280;10993;52.510;13.456;2023-12-20T11:58:35;62108.94;;;-146.93;93.24
21664;BME280;10993;52.510;13.456;2023-12-20T12:03:36;62561.22;;;-146.93;93.69
21664;BME280;10993;52.510;13.456;2023-12-20T12:08:36;62630.16;;;-146.93;93.68
21664;BME280;10993;52.510;13.456;2023-12-20T12:13:39;61599.94;;;-146.93;92.49
21664;BME280;10993;52.510;13.456;2023-12-20T12:18:39;60596.38;;;-146.93;91.24
21664;BME280;10993;52.510;13.456;2023-12-20T12:23:42;60570.03;;;-146.93;91.30
21664;BME280;10993;52.510;13.456;2023-12-20T12:28:43;60720.03;;;-146.93;91.55
21664;BME280;10993;52.510;13.456;2023-12-20T12:33:44;61218.75;;;-146.93;92.44
21664;BME280;10993;52.510;13.456;2023-12-20T12:38:45;63244.81;;;-146.93;94.36
21664;BME280;10993;52.510;13.456;2023-12-20T12:43:47;64947.28;;;-146.93;95.26
21664;BME280;10993;52.510;13.456;2023-12-20T12:48:47;70820.19;;;-146.93;97.87
21664;BME280;10993;52.510;13.456;2023-12-20T12:53:49;74656.91;;;-146.93;98.78
21664;BME280;10993;52.510;13.456;2023-12-20T12:58:51;76481.19;;;-146.93;99.29
21664;BME280;10993;52.510;13.456;2023-12-20T13:03:51;77784.81;;;-146.93;99.53
21664;BME280;10993;52.510;13.456;2023-12-20T13:08:51;78045.59;;;-146.93;99.49
21664;BME280;10993;52.510;13.456;2023-12-20T13:13:53;78045.59;;;-146.93;99.57
21664;BME280;10993;52.510;13.456;2023-12-20T13:18:53;81176.59;;;-146.93;100.00
21664;BME280;10993;52.510;13.456;2023-12-20T13:23:54;82743.16;;;-146.93;100.00
21664;BME280;10993;52.510;13.456;2023-12-20T13:28:55;86662.69;;;-146.93;100.00
21664;BME280;10993;52.510;13.456;2023-12-20T13:33:56;84833.03;;;-146.93;100.00
21664;BME280;10993;52.510;13.456;2023-12-20T13:38:56;83004.31;;;-146.93;100.00
21664;BME280;10993;52.510;13.456;2023-12-20T13:43:58;73875.38;;;-146.93;98.65
21664;BME280;10993;52.510;13.456;2023-12-20T13:48:58;75699.25;;;-146.93;99.22
21664;BME280;10993;52.510;13.456;2023-12-20T13:53:58;72937.38;;;-146.93;98.72
21664;BME280;10993;52.510;13.456;2023-12-20T13:59:00;70747.00;;;-146.93;98.09
21664;BME280;10993;52.510;13.456;2023-12-20T14:04:01;71802.34;;;-146.93;98.45
21664;BME280;10993;52.510;13.456;2023-12-20T14:09:01;73614.91;;;-146.93;99.10
21664;BME280;10993;52.510;13.456;2023-12-20T14:14:04;76220.50;;;-146.93;99.79
21664;BME280;10993;52.510;13.456;2023-12-20T14:19:04;77784.81;;;-146.93;100.00
21664;BME280;10993;52.510;13.456;2023-12-20T14:24:07;76741.88;;;-146.93;99.95
21664;BME280;10993;52.510;13.456;2023-12-20T14:29:09;75178.03;;;-146.93;99.36
21664;BME280;10993;52.510;13.456;2023-12-20T14:34:09;70698.19;;;-146.93;98.29
21664;BME280;10993;52.510;13.456;2023-12-20T14:39:09;70326.16;;;-146.93;97.86
21664;BME280;10993;52.510;13.456;2023-12-20T14:44:14;68133.38;;;-146.93;97.53
21664;BME280;10993;52.510;13.456;2023-12-20T14:49:14;66092.22;;;-146.93;96.74
21664;BME280;10993;52.510;13.456;2023-12-20T14:54:15;65931.84;;;-146.93;96.81
21664;BME280;10993;52.510;13.456;2023-12-20T14:59:16;64663.16;;;-146.93;96.17
21664;BME280;10993;52.510;13.456;2023-12-20T15:04:17;64482.53;;;-146.93;96.13
21664;BME280;10993;52.510;13.456;2023-12-20T15:09:17;66272.94;;;-146.93;96.99
21664;BME280;10993;52.510;13.456;2023-12-20T15:14:19;66536.91;;;-146.93;97.04
21664;BME280;10993;52.510;13.456;2023-12-20T15:19:20;67215.22;;;-146.93;97.41
21664;BME280;10993;52.510;13.456;2023-12-20T15:24:20;67824.56;;;-146.93;97.57
21664;BME280;10993;52.510;13.456;2023-12-20T15:29:28;68415.78;;;-146.93;97.49
21664;BME280;10993;52.510;13.456;2023-12-20T15:34:29;66622.19;;;-146.93;97.18
21664;BME280;10993;52.510;13.456;2023-12-20T15:39:29;66756.22;;;-146.93;97.29
21664;BME280;10993;52.510;13.456;2023-12-20T15:44:31;67735.19;;;-146.93;97.73
21664;BME280;10993;52.510;13.456;2023-12-20T15:49:31;67536.13;;;-146.93;97.72
21664;BME280;10993;52.510;13.456;2023-12-20T15:54:31;67832.69;;;-146.93;97.95
21664;BME280;10993;52.510;13.456;2023-12-20T15:59:33;69437.91;;;-146.93;98.49
21664;BME280;10993;52.510;13.456;2023-12-20T16:04:33;68560.03;;;-146.93;98.30
21664;BME280;10993;52.510;13.456;2023-12-20T16:09:34;68373.09;;;-146.93;98.32
21664;BME280;10993;52.510;13.456;2023-12-20T16:14:35;68763.22;;;-146.93;98.30
21664;BME280;10993;52.510;13.456;2023-12-20T16:19:36;68612.84;;;-146.93;98.41
21664;BME280;10993;52.510;13.456;2023-12-20T16:24:36;68415.78;;;-146.93;98.30
21664;BME280;10993;52.510;13.456;2023-12-20T16:29:38;69100.53;;;-146.93;98.54
21664;BME280;10993;52.510;13.456;2023-12-20T16:34:38;67198.97;;;-146.93;97.89
21664;BME280;10993;52.510;13.456;2023-12-20T16:39:38;66981.66;;;-146.93;97.74
21664;BME280;10993;52.510;13.456;2023-12-20T16:44:40;66878.06;;;-146.93;97.72
21664;BME280;10993;52.510;13.456;2023-12-20T16:49:41;65864.84;;;-146.93;97.22
21664;BME280;10993;52.510;13.456;2023-12-20T16:54:42;65176.66;;;-146.93;96.86
21664;BME280;10993;52.510;13.456;2023-12-20T16:59:44;65511.59;;;-146.93;97.14
21664;BME280;10993;52.510;13.456;2023-12-20T17:04:44;65769.41;;;-146.93;97.23
21664;BME280;10993;52.510;13.456;2023-12-20T17:09:44;66447.56;;;-146.93;97.63
21664;BME280;10993;52.510;13.456;2023-12-20T17:14:47;67085.22;;;-146.93;97.82
21664;BME280;10993;52.510;13.456;2023-12-20T17:19:48;67448.78;;;-146.93;97.95
21664;BME280;10993;52.510;13.456;2023-12-20T17:24:48;68200.41;;;-146.93;98.22
21664;BME280;10993;52.510;13.456;2023-12-20T17:29:50;68320.28;;;-146.93;98.15
21664;BME280;10993;52.510;13.456;2023-12-20T17:34:50;67777.84;;;-146.93;97.86
21664;BME280;10993;52.510;13.456;2023-12-20T17:39:50;66346.03;;;-146.93;97.39
21664;BME280;10993;52.510;13.456;2023-12-20T17:44:52;64512.97;;;-146.93;96.38
21664;BME280;10993;52.510;13.456;2023-12-20T17:49:52;63971.16;;;-146.93;96.06
21664;BME280;10993;52.510;13.456;2023-12-20T17:54:53;63691.13;;;-146.93;95.79
21664;BME280;10993;52.510;13.456;2023-12-20T17:59:54;62928.34;;;-146.93;95.11
21664;BME280;10993;52.510;13.456;2023-12-20T18:04:55;62356.34;;;-146.93;94.64
21664;BME280;10993;52.510;13.456;2023-12-20T18:09:55;62005.50;;;-146.93;94.40
21664;BME280;10993;52.510;13.456;2023-12-20T18:14:57;61512.75;;;-146.93;94.05
21664;BME280;10993;52.510;13.456;2023-12-20T18:19:58;61127.53;;;-146.93;93.40
21664;BME280;10993;52.510;13.456;2023-12-20T18:24:59;60519.34;;;-146.93;92.67
21664;BME280;10993;52.510;13.456;2023-12-20T18:30:01;60320.69;;;-146.93;92.43
21664;BME280;10993;52.510;13.456;2023-12-20T18:35:06;60284.22;;;-146.93;92.27
21664;BME280;10993;52.510;13.456;2023-12-20T18:40:07;60450.44;;;-146.93;92.39
21664;BME280;10993;52.510;13.456;2023-12-20T18:45:10;59757.25;;;-146.93;91.53
21664;BME280;10993;52.510;13.456;2023-12-20T18:50:10;59627.56;;;-146.93;90.81
21664;BME280;10993;52.510;13.456;2023-12-20T18:55:10;59617.44;;;-146.93;91.04
21664;BME280;10993;52.510;13.456;2023-12-20T19:00:13;59678.22;;;-146.93;91.34
21664;BME280;10993;52.510;13.456;2023-12-20T19:05:14;59684.31;;;-146.93;91.06
21664;BME280;10993;52.510;13.456;2023-12-20T19:10:14;59485.72;;;-146.93;90.69
21664;BME280;10993;52.510;13.456;2023-12-20T19:15:16;59390.47;;;-146.93;90.35
21664;BME280;10993;52.510;13.456;2023-12-20T19:20:16;59757.25;;;-146.93;91.24
21664;BME280;10993;52.510;13.456;2023-12-20T19:25:19;60146.38;;;-146.93;92.23
21664;BME280;10993;52.510;13.456;2023-12-20T19:30:20;60053.16;;;-146.93;91.56
21664;BME280;10993;52.510;13.456;2023-12-20T19:35:21;60215.31;;;-146.93;92.04
21664;BME280;10993;52.510;13.456;2023-12-20T19:40:21;59828.19;;;-146.93;91.52
21664;BME280;10993;52.510;13.456;2023-12-20T19:45:23;59649.84;;;-146.93;90.80
21664;BME280;10993;52.510;13.456;2023-12-20T19:50:24;59479.63;;;-146.93;90.47
21664;BME280;10993;52.510;13.456;2023-12-20T19:55:24;59242.53;;;-146.93;89.91
21664;BME280;10993;52.510;13.456;2023-12-20T20:00:26;59100.72;;;-146.93;89.36
21664;BME280;10993;52.510;13.456;2023-12-20T20:05:26;58804.91;;;-146.93;88.60
21664;BME280;10993;52.510;13.456;2023-12-20T20:10:27;58780.59;;;-146.93;88.74
21664;BME280;10993;52.510;13.456;2023-12-20T20:15:28;58545.56;;;-146.93;87.99
21664;BME280;10993;52.510;13.456;2023-12-20T20:20:29;58693.47;;;-146.93;88.26
21664;BME280;10993;52.510;13.456;2023-12-20T20:25:29;58669.16;;;-146.93;88.11
21664;BME280;10993;52.510;13.456;2023-12-20T20:30:31;58646.88;;;-146.93;87.95
21664;BME280;10993;52.510;13.456;2023-12-20T20:35:31;58452.38;;;-146.93;87.76
21664;BME280;10993;52.510;13.456;2023-12-20T20:40:32;58600.28;;;-146.93;88.02
21664;BME280;10993;52.510;13.456;2023-12-20T20:45:33;58606.34;;;-146.93;88.04
21664;BME280;10993;52.510;13.456;2023-12-20T20:50:34;58533.41;;;-146.93;87.82
21664;BME280;10993;52.510;13.456;2023-12-20T20:55:34;58488.84;;;-146.93;87.71
21664;BME280;10993;52.510;13.456;2023-12-20T21:00:36;58685.34;;;-146.93;88.46
21664;BME280;10993;52.510;13.456;2023-12-20T21:05:39;58890.00;;;-146.93;89.27
21664;BME280;10993;52.510;13.456;2023-12-20T21:10:40;59878.84;;;-146.93;89.52
21664;BME280;10993;52.510;13.456;2023-12-20T21:15:41;59080.44;;;-146.93;89.74
21664;BME280;10993;52.510;13.456;2023-12-20T21:20:43;58924.44;;;-146.93;89.82
21664;BME280;10993;52.510;13.456;2023-12-20T21:25:43;60207.19;;;-146.93;92.59
21664;BME280;10993;52.510;13.456;2023-12-20T21:30:45;61342.44;;;-146.93;94.08
21664;BME280;10993;52.510;13.456;2023-12-20T21:35:45;62409.09;;;-146.93;95.14
21664;BME280;10993;52.510;13.456;2023-12-20T21:40:46;63325.94;;;-146.93;95.84
21664;BME280;10993;52.510;13.456;2023-12-20T21:45:48;64616.47;;;-146.93;96.54
21664;BME280;10993;52.510;13.456;2023-12-20T21:50:49;66384.63;;;-146.93;97.50
21664;BME280;10993;52.510;13.456;2023-12-20T21:55:49;68271.50;;;-146.93;98.21
21664;BME280;10993;52.510;13.456;2023-12-20T22:00:51;70986.91;;;-146.93;98.84
21664;BME280;10993;52.510;13.456;2023-12-20T22:05:51;71377.31;;;-146.93;98.98
21664;BME280;10993;52.510;13.456;2023-12-20T22:10:52;72874.31;;;-146.93;99.44
21664;BME280;10993;52.510;13.456;2023-12-20T22:15:53;74656.91;;;-146.93;99.86
21664;BME280;10993;52.510;13.456;2023-12-20T22:20:54;77002.59;;;-146.93;100.00
21664;BME280;10993;52.510;13.456;2023-12-20T22:25:55;77263.31;;;-146.93;100.00
21664;BME280;10993;52.510;13.456;2023-12-20T22:30:56;78045.59;;;-146.93;100.00
21664;BME280;10993;52.510;13.456;2023-12-20T22:35:57;78828.09;;;-146.93;100.00
21664;BME280;10993;52.510;13.456;2023-12-20T22:40:58;78828.09;;;-146.93;100.00
21664;BME280;10993;52.510;13.456;2023-12-20T22:45:59;77784.81;;;-146.93;100.00
21664;BME280;10993;52.510;13.456;2023-12-20T22:51:00;77263.31;;;-146.93;100.00
21664;BME280;10993;52.510;13.456;2023-12-20T22:56:00;78045.59;;;-146.93;100.00
21664;BME280;10993;52.510;13.456;2023-12-20T23:01:02;80132.63;;;-146.93;100.00
21664;BME280;10993;52.510;13.456;2023-12-20T23:06:03;80915.56;;;-146.93;100.00
21664;BME280;10993;52.510;13.456;2023-12-20T23:11:04;80915.56;;;-146.93;100.00
21664;BME280;10993;52.510;13.456;2023-12-20T23:16:06;82743.16;;;-146.93;100.00
21664;BME280;10993;52.510;13.456;2023-12-20T23:21:07;83526.72;;;-146.93;100.00
21664;BME280;10993;52.510;13.456;2023-12-20T23:26:07;84049.19;;;-146.93;100.00
21664;BME280;10993;52.510;13.456;2023-12-20T23:31:10;85094.34;;;-146.93;100.00
21664;BME280;10993;52.510;13.456;2023-12-20T23:36:10;86662.69;;;-146.93;100.00
21664;BME280;10993;52.510;13.456;2023-12-20T23:41:11;88493.34;;;-146.93;100.00
21664;BME280;10993;52.510;13.456;2023-12-20T23:46:12;89539.84;;;-146.93;100.00
21664;BME280;10993;52.510;13.456;2023-12-20T23:51:13;91633.81;;;-146.93;100.00
21664;BME280;10993;52.510;13.456;2023-12-20T23:56:13;92943.22;;;-146.93;100.00
